createdAt,value
2022-07-28T00:01:20.186Z,19.91
2022-07-28T00:03:49.087Z,19.87
2022-07-28T00:06:17.264Z,20.04
2022-07-28T00:08:46.751Z,20.20
2022-07-28T00:11:14.734Z,19.80
2022-07-28T00:13:43.815Z,19.86
2022-07-28T00:16:11.711Z,20.18
2022-07-28T00:18:39.845Z,19.63
2022-07-28T00:21:07.705Z,20.16
2022-07-28T00:23:38.819Z,20.17
2022-07-28T00:26:09.063Z,19.28
2022-07-28T00:28:37.226Z,19.80
2022-07-28T00:31:08.105Z,20.15
2022-07-28T00:33:38.119Z,20.15
2022-07-28T00:36:11.399Z,20.15
2022-07-28T00:38:44.135Z,19.33
2022-07-28T00:41:14.189Z,20.14
2022-07-28T00:43:43.362Z,20.15
2022-07-28T00:46:35.756Z,20.15
2022-07-28T00:49:06.751Z,19.99
2022-07-28T00:51:34.770Z,19.53
2022-07-28T00:54:02.826Z,20.02
2022-07-28T00:56:32.608Z,19.01
2022-07-28T00:59:00.583Z,19.97
2022-07-28T01:01:28.535Z,19.43
2022-07-28T01:04:01.914Z,19.92
2022-07-28T01:06:38.999Z,19.65
2022-07-28T01:09:10.324Z,19.90
2022-07-28T01:11:44.223Z,19.90
2022-07-28T01:14:18.079Z,19.33
2022-07-28T01:16:49.198Z,19.71
2022-07-28T01:19:31.182Z,19.53
2022-07-28T01:21:59.288Z,19.84
2022-07-28T01:24:28.669Z,19.81
2022-07-28T01:27:00.110Z,19.77
2022-07-28T01:30:10.386Z,19.43
2022-07-28T01:32:41.727Z,19.46
2022-07-28T01:35:13.361Z,19.72
2022-07-28T01:37:45.033Z,19.68
2022-07-28T01:40:14.564Z,18.76
2022-07-28T01:42:44.916Z,19.65
2022-07-28T01:45:12.996Z,19.62
2022-07-28T01:47:42.977Z,19.27
2022-07-28T01:50:11.944Z,19.49
2022-07-28T01:52:40.042Z,19.25
2022-07-28T01:55:08.874Z,19.37
2022-07-28T01:57:37.224Z,19.32
2022-07-28T02:00:06.974Z,19.27
2022-07-28T02:02:34.943Z,19.26
2022-07-28T02:05:05.456Z,19.19
2022-07-28T02:07:33.461Z,19.15
2022-07-28T02:10:01.575Z,17.62
2022-07-28T02:12:29.782Z,17.74
2022-07-28T02:14:57.881Z,19.05
2022-07-28T02:17:27.801Z,18.48
2022-07-28T02:19:55.963Z,18.59
2022-07-28T02:22:25.439Z,18.29
2022-07-28T02:24:54.019Z,18.12
2022-07-28T02:27:24.094Z,18.72
2022-07-28T02:29:59.844Z,18.70
2022-07-28T02:32:33.059Z,18.83
2022-07-28T02:35:03.031Z,18.83
2022-07-28T02:37:35.974Z,18.01
2022-07-28T02:40:03.964Z,18.61
2022-07-28T02:42:33.483Z,18.72
2022-07-28T02:45:02.969Z,18.48
2022-07-28T02:47:34.783Z,18.41
2022-07-28T02:50:05.829Z,17.07
2022-07-28T02:52:35.371Z,18.58
2022-07-28T02:55:03.234Z,17.88
2022-07-28T02:57:32.364Z,18.25
2022-07-28T03:00:00.315Z,18.50
2022-07-28T03:02:30.833Z,17.83
2022-07-28T03:04:59.171Z,17.80
2022-07-28T03:07:30.109Z,18.37
2022-07-28T03:09:59.684Z,18.32
2022-07-28T03:12:27.790Z,18.04
2022-07-28T03:14:55.817Z,17.80
2022-07-28T03:17:23.832Z,18.24
2022-07-28T03:19:51.762Z,18.22
2022-07-28T03:22:19.829Z,18.20
2022-07-28T03:24:53.140Z,17.85
2022-07-28T03:27:26.096Z,17.55
2022-07-28T03:29:58.030Z,17.77
2022-07-28T03:32:29.007Z,17.91
2022-07-28T03:35:19.846Z,18.07
2022-07-28T03:37:51.189Z,17.40
2022-07-28T03:40:19.209Z,17.49
2022-07-28T03:42:48.841Z,16.54
2022-07-28T03:45:35.207Z,17.96
2022-07-28T03:48:09.327Z,17.90
2022-07-28T03:50:37.651Z,17.68
2022-07-28T03:53:05.853Z,17.11
2022-07-28T03:55:33.794Z,17.83
2022-07-28T03:58:03.466Z,17.78
2022-07-28T04:00:31.536Z,17.66
2022-07-28T04:02:59.932Z,17.12
2022-07-28T04:05:27.798Z,17.23
2022-07-28T04:07:55.852Z,17.79
2022-07-28T04:10:23.853Z,17.79
2022-07-28T04:12:52.691Z,17.85
2022-07-28T04:15:22.139Z,17.35
2022-07-28T04:17:50.404Z,17.74
2022-07-28T04:20:18.580Z,17.90
2022-07-28T04:22:47.022Z,17.90
2022-07-28T04:25:15.164Z,17.90
2022-07-28T04:27:43.506Z,17.94
2022-07-28T04:30:13.425Z,17.90
2022-07-28T04:32:43.152Z,16.77
2022-07-28T04:35:16.843Z,17.72
2022-07-28T04:37:45.915Z,17.00
2022-07-28T04:40:14.432Z,17.84
2022-07-28T04:42:42.491Z,17.44
2022-07-28T04:45:11.627Z,17.33
2022-07-28T04:47:39.705Z,17.58
2022-07-28T04:50:11.007Z,16.96
2022-07-28T04:52:40.079Z,16.83
2022-07-28T04:55:38.636Z,17.94
2022-07-28T04:58:06.858Z,17.95
2022-07-28T05:00:39.403Z,17.72
2022-07-28T05:03:07.332Z,18.05
2022-07-28T05:05:36.884Z,18.08
2022-07-28T05:08:05.016Z,18.03
2022-07-28T05:10:33.187Z,17.75
2022-07-28T05:13:06.108Z,17.85
2022-07-28T05:15:34.278Z,17.09
2022-07-28T05:18:02.296Z,18.26
2022-07-28T05:20:30.351Z,16.37
2022-07-28T05:22:59.755Z,18.32
2022-07-28T05:25:27.952Z,18.15
2022-07-28T05:27:56.090Z,17.39
2022-07-28T05:30:24.125Z,18.38
2022-07-28T05:32:53.930Z,18.48
2022-07-28T05:35:21.935Z,18.57
2022-07-28T05:37:50.048Z,18.64
2022-07-28T05:40:19.377Z,17.11
2022-07-28T05:42:48.617Z,18.78
2022-07-28T05:45:21.807Z,18.86
2022-07-28T05:47:52.271Z,18.15
2022-07-28T05:50:21.717Z,19.06
2022-07-28T05:52:52.669Z,18.62
2022-07-28T05:55:22.434Z,19.27
2022-07-28T05:57:51.868Z,19.12
2022-07-28T06:00:21.028Z,19.61
2022-07-28T06:02:50.175Z,20.34
2022-07-28T06:05:19.592Z,20.10
2022-07-28T06:07:48.229Z,20.65
2022-07-28T06:26:12.394Z,22.92
2022-07-28T06:28:40.783Z,21.97
2022-07-28T06:31:09.477Z,23.94
2022-07-28T06:33:39.471Z,23.02
2022-07-28T06:36:12.221Z,24.36
2022-07-28T06:38:40.788Z,23.84
2022-07-28T06:41:09.520Z,23.52
2022-07-28T06:43:39.291Z,23.90
2022-07-28T06:46:08.154Z,24.75
2022-07-28T06:48:37.878Z,25.46
2022-07-28T06:51:08.484Z,25.00
2022-07-28T06:53:37.165Z,25.08
2022-07-28T06:56:06.808Z,24.04
2022-07-28T06:58:36.345Z,24.29
2022-07-28T07:01:08.180Z,25.23
2022-07-28T07:03:36.485Z,25.87
2022-07-28T07:06:04.753Z,25.71
2022-07-28T07:08:34.665Z,25.18
2022-07-28T07:11:02.983Z,25.58
2022-07-28T07:13:31.460Z,27.49
2022-07-28T07:15:59.676Z,26.31
2022-07-28T07:18:28.054Z,27.90
2022-07-28T07:20:57.775Z,27.05
2022-07-28T07:23:26.012Z,28.04
2022-07-28T07:25:55.499Z,29.30
2022-07-28T07:28:23.519Z,29.27
2022-07-28T07:30:51.492Z,30.35
2022-07-28T07:33:19.830Z,30.03
2022-07-28T07:35:48.678Z,30.08
2022-07-28T07:38:18.009Z,29.63
2022-07-28T07:40:46.549Z,30.19
2022-07-28T07:43:16.192Z,30.04
2022-07-28T07:45:44.582Z,30.71
2022-07-28T07:48:12.968Z,29.39
2022-07-28T07:50:41.212Z,29.92
2022-07-28T07:53:10.311Z,30.00
2022-07-28T07:55:38.690Z,31.69
2022-07-28T07:58:06.820Z,32.01
2022-07-28T08:00:39.441Z,32.18
2022-07-28T08:03:11.191Z,31.03
2022-07-28T08:05:39.867Z,32.66
2022-07-28T08:08:08.093Z,32.00
2022-07-28T08:10:36.296Z,33.14
2022-07-28T08:13:04.805Z,31.65
2022-07-28T08:15:33.108Z,32.60
2022-07-28T08:18:02.764Z,32.89
2022-07-28T08:20:30.992Z,33.98
2022-07-28T08:22:59.313Z,34.60
2022-07-28T08:25:27.720Z,34.14
2022-07-28T08:27:55.783Z,34.06
2022-07-28T08:30:27.455Z,33.59
2022-07-28T08:32:58.403Z,34.03
2022-07-28T08:35:35.790Z,33.02
2022-07-28T08:38:05.888Z,34.21
2022-07-28T08:40:34.075Z,34.54
2022-07-28T08:43:04.892Z,34.60
2022-07-28T08:45:35.433Z,35.93
2022-07-28T08:48:08.673Z,35.78
2022-07-28T08:50:39.166Z,36.48
2022-07-28T08:53:07.969Z,36.34
2022-07-28T08:55:36.687Z,36.32
2022-07-28T08:58:05.391Z,36.35
2022-07-28T09:00:34.386Z,35.36
2022-07-28T09:03:03.418Z,35.98
2022-07-28T09:05:32.134Z,35.86
2022-07-28T09:08:02.259Z,37.40
2022-07-28T09:10:31.184Z,37.06
2022-07-28T09:12:59.564Z,37.87
2022-07-28T09:15:28.012Z,37.12
2022-07-28T09:17:56.753Z,38.47
2022-07-28T09:20:25.525Z,37.02
2022-07-28T09:23:02.387Z,38.58
2022-07-28T09:25:30.982Z,38.92
2022-07-28T09:28:02.528Z,38.38
2022-07-28T09:30:31.723Z,38.57
2022-07-28T09:33:42.202Z,40.30
2022-07-28T09:36:06.428Z,39.53
2022-07-28T09:38:42.039Z,39.91
2022-07-28T09:41:10.153Z,39.54
2022-07-28T09:43:39.263Z,38.96
2022-07-28T09:46:09.391Z,40.34
2022-07-28T09:48:38.296Z,39.53
2022-07-28T09:51:12.507Z,39.19
2022-07-28T09:53:42.336Z,40.37
2022-07-28T09:56:11.220Z,39.63
2022-07-28T09:58:39.937Z,40.48
2022-07-28T10:01:09.788Z,40.58
2022-07-28T10:03:40.565Z,41.42
2022-07-28T10:06:09.715Z,40.77
2022-07-28T10:08:43.271Z,42.46
2022-07-28T10:11:11.900Z,42.43
2022-07-28T10:13:53.897Z,41.70
2022-07-28T10:16:22.776Z,41.73
2022-07-28T10:18:50.998Z,41.69
2022-07-28T10:21:20.613Z,43.56
2022-07-28T10:23:51.387Z,43.52
2022-07-28T10:26:21.081Z,43.05
2022-07-28T10:28:51.165Z,43.63
2022-07-28T10:31:27.613Z,44.17
2022-07-28T10:33:55.901Z,45.89
2022-07-28T10:36:25.586Z,45.90
2022-07-28T10:38:59.582Z,45.60
2022-07-28T10:41:29.975Z,45.07
2022-07-28T10:43:58.429Z,45.29
2022-07-28T10:46:27.192Z,44.77
2022-07-28T10:48:55.552Z,46.04
2022-07-28T10:51:28.338Z,45.07
2022-07-28T10:54:03.125Z,45.12
2022-07-28T10:56:38.866Z,45.82
2022-07-28T10:59:09.614Z,44.26
2022-07-28T11:01:54.155Z,45.62
2022-07-28T11:04:52.583Z,45.14
2022-07-28T11:07:24.627Z,44.29
2022-07-28T11:09:55.057Z,45.61
2022-07-28T11:12:49.181Z,44.05
2022-07-28T11:15:32.029Z,44.46
2022-07-28T11:18:02.768Z,45.15
2022-07-28T11:21:08.687Z,45.67
2022-07-28T11:23:48.145Z,45.38
2022-07-28T11:26:37.020Z,43.59
2022-07-28T11:29:23.577Z,43.16
2022-07-28T11:32:07.484Z,44.07
2022-07-28T11:35:07.827Z,43.83
2022-07-28T11:38:12.367Z,42.98
2022-07-28T11:40:42.683Z,40.97
2022-07-28T11:43:36.426Z,39.26
2022-07-28T11:46:37.723Z,40.41
2022-07-28T11:49:18.619Z,39.14
2022-07-28T11:52:21.646Z,38.09
2022-07-28T11:54:56.415Z,37.26
2022-07-28T11:57:28.624Z,35.90
2022-07-28T12:00:02.228Z,36.47
2022-07-28T12:02:31.746Z,35.34
2022-07-28T12:05:08.522Z,34.67
2022-07-28T12:07:38.836Z,34.27
2022-07-28T12:13:28.708Z,35.20
2022-07-28T12:15:58.385Z,33.61
2022-07-28T12:18:26.511Z,33.05
2022-07-28T12:20:55.123Z,32.96
2022-07-28T12:23:44.332Z,34.89
2022-07-28T12:26:31.454Z,32.93
2022-07-28T12:29:00.212Z,34.36
2022-07-28T12:31:33.222Z,32.91
2022-07-28T12:34:01.617Z,33.34
2022-07-28T12:36:29.605Z,34.00
2022-07-28T12:38:57.556Z,33.51
2022-07-28T12:41:25.440Z,34.12
2022-07-28T12:43:53.828Z,33.56
2022-07-28T12:46:23.661Z,33.99
2022-07-28T12:48:58.756Z,33.34
2022-07-28T12:51:36.880Z,33.68
2022-07-28T12:54:06.814Z,31.31
2022-07-28T12:56:48.371Z,32.49
2022-07-28T12:59:18.468Z,32.31
2022-07-28T13:01:50.866Z,32.61
2022-07-28T13:04:40.577Z,33.28
2022-07-28T13:07:11.011Z,31.34
2022-07-28T13:09:49.050Z,31.58
2022-07-28T13:12:24.329Z,31.09
2022-07-28T13:14:54.893Z,32.77
2022-07-28T13:17:24.758Z,31.67
2022-07-28T13:20:04.270Z,32.39
2022-07-28T13:22:33.908Z,30.13
2022-07-28T13:25:02.582Z,31.90
2022-07-28T13:27:32.624Z,31.40
2022-07-28T13:30:01.037Z,31.13
2022-07-28T13:32:36.569Z,30.27
2022-07-28T13:35:15.210Z,31.36
2022-07-28T13:37:44.307Z,31.13
2022-07-28T13:40:13.411Z,31.75
2022-07-28T13:42:53.219Z,32.29
2022-07-28T13:45:25.296Z,32.98
2022-07-28T13:47:58.153Z,31.95
2022-07-28T13:50:27.940Z,32.13
2022-07-28T13:52:56.274Z,33.13
2022-07-28T13:55:24.441Z,32.33
2022-07-28T13:57:55.242Z,32.93
2022-07-28T14:00:25.076Z,32.75
2022-07-28T14:02:53.538Z,32.60
2022-07-28T14:05:22.008Z,32.99
2022-07-28T14:07:51.511Z,31.20
2022-07-28T14:10:19.642Z,32.82
2022-07-28T14:12:47.826Z,32.75
2022-07-28T14:15:16.274Z,32.45
2022-07-28T14:17:46.175Z,32.89
2022-07-28T14:20:14.953Z,32.79
2022-07-28T14:22:43.230Z,31.96
2022-07-28T14:25:20.521Z,32.16
2022-07-28T14:27:49.185Z,31.71
2022-07-28T14:30:17.337Z,32.24
2022-07-28T14:32:45.878Z,31.50
2022-07-28T14:35:14.010Z,31.40
2022-07-28T14:38:23.163Z,31.53
2022-07-28T14:40:32.142Z,31.54
2022-07-28T14:43:03.356Z,31.82
2022-07-28T14:45:51.524Z,30.33
2022-07-28T14:48:27.698Z,30.77
2022-07-28T14:50:57.205Z,31.70
2022-07-28T14:53:27.707Z,30.67
2022-07-28T14:55:57.741Z,31.88
2022-07-28T14:58:26.061Z,31.87
2022-07-28T15:00:54.626Z,31.23
2022-07-28T15:03:22.853Z,29.88
2022-07-28T15:05:50.913Z,29.93
2022-07-28T15:08:19.006Z,30.25
2022-07-28T15:10:49.080Z,31.22
2022-07-28T15:13:18.710Z,32.07
2022-07-28T15:15:46.795Z,31.30
2022-07-28T15:18:14.850Z,31.55
2022-07-28T15:20:43.613Z,32.05
2022-07-28T15:23:11.814Z,31.34
2022-07-28T15:25:40.015Z,30.42
2022-07-28T15:28:08.451Z,31.69
2022-07-28T15:30:49.169Z,29.85
2022-07-28T15:33:20.442Z,31.01
2022-07-28T15:35:56.544Z,29.79
2022-07-28T15:38:29.219Z,31.42
2022-07-28T15:40:58.918Z,30.44
2022-07-28T15:43:27.496Z,31.44
2022-07-28T15:45:59.331Z,29.27
2022-07-28T15:48:27.839Z,30.84
2022-07-28T15:50:57.257Z,30.79
2022-07-28T15:53:25.831Z,31.54
2022-07-28T15:55:57.271Z,30.95
2022-07-28T15:58:27.357Z,30.97
2022-07-28T16:00:57.285Z,30.97
2022-07-28T16:03:29.652Z,30.60
2022-07-28T16:05:58.942Z,30.88
2022-07-28T16:08:27.494Z,30.87
2022-07-28T16:10:55.884Z,31.11
2022-07-28T16:13:36.763Z,29.80
2022-07-28T16:16:08.530Z,30.67
2022-07-28T16:18:37.685Z,29.48
2022-07-28T16:21:05.889Z,30.62
2022-07-28T16:23:34.031Z,29.05
2022-07-28T16:26:01.987Z,29.70
2022-07-28T16:28:29.982Z,29.47
2022-07-28T16:30:58.259Z,30.96
2022-07-28T16:33:33.634Z,30.88
2022-07-28T16:36:02.344Z,29.64
2022-07-28T16:38:30.604Z,29.88
2022-07-28T16:40:58.809Z,30.50
2022-07-28T16:43:27.274Z,28.24
2022-07-28T16:45:55.517Z,29.56
2022-07-28T16:48:23.966Z,30.39
2022-07-28T16:50:54.002Z,29.33
2022-07-28T16:53:22.148Z,28.68
2022-07-28T16:55:52.228Z,30.52
2022-07-28T16:58:22.469Z,29.04
2022-07-28T17:00:51.289Z,29.46
2022-07-28T17:03:21.908Z,30.43
2022-07-28T17:05:51.889Z,28.68
2022-07-28T17:08:22.201Z,29.69
2022-07-28T17:10:50.562Z,29.78
2022-07-28T17:13:19.860Z,29.20
2022-07-28T17:15:49.493Z,30.34
2022-07-28T17:18:18.613Z,29.03
2022-07-28T17:20:47.590Z,29.77
2022-07-28T17:23:16.009Z,28.14
2022-07-28T17:26:16.091Z,29.96
2022-07-28T17:28:34.849Z,29.17
2022-07-28T17:31:03.376Z,29.89
2022-07-28T17:33:31.912Z,27.39
2022-07-28T17:36:00.788Z,29.78
2022-07-28T17:38:33.075Z,29.14
2022-07-28T17:41:05.468Z,29.06
2022-07-28T17:43:33.837Z,27.97
2022-07-28T17:46:02.857Z,27.79
2022-07-28T17:48:38.448Z,28.74
2022-07-28T17:51:06.898Z,27.17
2022-07-28T17:53:38.965Z,27.97
2022-07-28T17:56:11.366Z,28.40
2022-07-28T17:58:39.510Z,28.23
2022-07-28T18:01:11.937Z,29.01
2022-07-28T18:03:56.807Z,28.80
2022-07-28T18:06:29.025Z,26.75
2022-07-28T18:08:57.045Z,28.42
2022-07-28T18:11:28.079Z,29.03
2022-07-28T18:14:04.395Z,28.49
2022-07-28T18:16:33.283Z,28.34
2022-07-28T18:19:02.044Z,29.01
2022-07-28T18:21:30.060Z,27.53
2022-07-28T18:23:59.294Z,28.33
2022-07-28T18:26:30.311Z,28.92
2022-07-28T18:28:58.631Z,28.19
2022-07-28T18:31:28.859Z,28.87
2022-07-28T18:33:57.069Z,28.13
2022-07-28T18:36:25.218Z,28.05
2022-07-28T18:38:53.684Z,27.97
2022-07-28T18:41:22.104Z,28.38
2022-07-28T18:43:52.131Z,27.86
2022-07-28T18:46:22.799Z,26.31
2022-07-28T18:48:57.298Z,26.48
2022-07-28T18:51:25.780Z,26.36
2022-07-28T18:53:53.954Z,26.97
2022-07-28T18:56:22.552Z,28.32
2022-07-28T18:58:54.405Z,28.23
2022-07-28T19:01:22.663Z,26.84
2022-07-28T19:03:52.949Z,27.44
2022-07-28T19:06:23.990Z,28.13
2022-07-28T19:08:51.956Z,27.53
2022-07-28T19:11:20.379Z,26.13
2022-07-28T19:13:48.460Z,25.52
2022-07-28T19:16:19.103Z,27.03
2022-07-28T19:18:47.147Z,27.97
2022-07-28T19:21:22.413Z,26.67
2022-07-28T19:23:51.180Z,26.61
2022-07-28T19:26:19.295Z,25.16
2022-07-28T19:28:47.355Z,27.11
2022-07-28T19:31:15.542Z,26.43
2022-07-28T19:33:45.502Z,27.67
2022-07-28T19:36:14.838Z,26.48
2022-07-28T19:38:46.928Z,27.56
2022-07-28T19:41:16.514Z,27.22
2022-07-28T19:46:12.232Z,27.39
2022-07-28T19:48:42.699Z,26.70
2022-07-28T19:51:12.159Z,27.27
2022-07-28T19:53:40.177Z,27.23
2022-07-28T19:56:09.080Z,27.17
2022-07-28T19:58:37.845Z,27.12
2022-07-28T20:01:06.057Z,26.50
2022-07-28T20:04:01.057Z,26.50
2022-07-28T20:06:24.945Z,27.07
2022-07-28T20:08:54.205Z,26.43
2022-07-28T20:11:22.367Z,25.87
2022-07-28T20:13:53.753Z,26.37
2022-07-28T20:16:22.449Z,26.93
2022-07-28T20:18:50.536Z,26.74
2022-07-28T20:21:21.376Z,26.92
2022-07-28T20:23:52.417Z,26.91
2022-07-28T20:26:24.003Z,26.02
2022-07-28T20:28:52.093Z,26.24
2022-07-28T20:31:20.370Z,26.22
2022-07-28T20:33:48.641Z,25.63
2022-07-28T20:36:16.820Z,26.20
2022-07-28T20:38:45.197Z,26.60
2022-07-28T20:41:16.340Z,26.75
2022-07-28T20:43:44.451Z,26.72
2022-07-28T20:46:12.397Z,26.40
2022-07-28T20:48:40.359Z,26.66
2022-07-28T20:51:08.380Z,26.63
2022-07-28T20:53:37.487Z,26.58
2022-07-28T20:56:06.432Z,26.28
2022-07-28T20:58:35.653Z,26.52
2022-07-28T21:01:03.570Z,26.11
2022-07-28T21:03:31.671Z,26.05
2022-07-28T21:05:59.506Z,25.94
2022-07-28T21:08:27.911Z,26.25
2022-07-28T21:10:55.790Z,26.06
2022-07-28T21:13:23.842Z,26.21
2022-07-28T21:15:53.185Z,26.26
2022-07-28T21:18:21.130Z,26.22
2022-07-28T21:20:49.059Z,26.00
2022-07-28T21:23:18.855Z,26.12
2022-07-28T21:25:48.518Z,26.13
2022-07-28T21:28:34.323Z,25.62
2022-07-28T21:31:03.662Z,25.82
2022-07-28T21:33:31.640Z,26.02
2022-07-28T21:35:59.522Z,26.00
2022-07-28T21:38:27.409Z,25.99
2022-07-28T21:40:55.262Z,25.96
2022-07-28T21:43:23.277Z,25.64
2022-07-28T21:45:52.005Z,25.49
2022-07-28T21:48:23.861Z,25.92
2022-07-28T21:50:51.881Z,25.91
2022-07-28T21:53:19.820Z,25.64
2022-07-28T21:55:47.775Z,25.58
2022-07-28T21:58:16.157Z,25.87
2022-07-28T22:00:44.268Z,25.82
2022-07-28T22:03:12.250Z,25.23
2022-07-28T22:05:41.618Z,25.63
2022-07-28T22:08:09.682Z,25.46
2022-07-28T22:10:37.647Z,25.90
2022-07-28T22:13:05.630Z,25.87
2022-07-28T22:15:33.504Z,24.79
2022-07-28T22:18:01.471Z,25.50
2022-07-28T22:20:29.337Z,25.68
2022-07-28T22:22:58.683Z,25.78
2022-07-28T22:25:26.507Z,25.76
2022-07-28T22:27:54.460Z,25.75
2022-07-28T22:30:22.332Z,25.70
2022-07-28T22:32:50.356Z,25.51
2022-07-28T22:35:18.214Z,25.61
2022-07-28T22:37:46.211Z,25.49
2022-07-28T22:40:16.123Z,25.33
2022-07-28T22:42:44.227Z,25.37
2022-07-28T22:45:12.493Z,25.21
2022-07-28T22:47:40.395Z,25.13
2022-07-28T22:50:09.083Z,25.38
2022-07-28T22:52:36.923Z,25.03
2022-07-28T22:55:05.557Z,25.30
2022-07-28T22:57:34.861Z,25.26
2022-07-28T23:00:02.866Z,25.22
2022-07-28T23:02:32.235Z,25.19
2022-07-28T23:05:01.127Z,25.15
2022-07-28T23:07:52.843Z,24.84
2022-07-28T23:10:16.807Z,25.12
2022-07-28T23:12:46.148Z,25.12
2022-07-28T23:15:13.954Z,24.62
2022-07-28T23:17:42.113Z,25.12
2022-07-28T23:20:11.289Z,24.19
2022-07-28T23:22:39.272Z,25.06
2022-07-28T23:25:07.735Z,25.04
2022-07-28T23:27:35.631Z,25.03
2022-07-28T23:30:05.826Z,25.03
2022-07-28T23:32:33.750Z,24.99
2022-07-28T23:35:01.636Z,25.00
2022-07-28T23:37:29.908Z,24.98
2022-07-28T23:39:57.856Z,24.50
2022-07-28T23:42:25.734Z,24.95
2022-07-28T23:44:53.585Z,24.64
2022-07-28T23:47:24.269Z,24.46
2022-07-28T23:49:52.213Z,24.91
2022-07-28T23:52:20.084Z,24.89
2022-07-28T23:54:47.932Z,24.80
2022-07-28T23:57:15.925Z,24.87
2022-07-28T23:59:43.809Z,24.58
